createdAt,value
2018-08-23T00:01:33.524Z,32.00
2018-08-23T00:06:39.891Z,31.73
2018-08-23T00:11:46.474Z,33.07
2018-08-23T00:16:49.556Z,36.00
2018-08-23T00:21:52.505Z,38.07
2018-08-23T00:26:57.563Z,34.60
2018-08-23T00:32:03.030Z,37.03
2018-08-23T00:37:06.577Z,33.47
2018-08-23T00:42:11.329Z,31.97
2018-08-23T00:47:14.309Z,40.03
2018-08-23T00:52:20.829Z,34.30
2018-08-23T00:57:23.818Z,41.30
2018-08-23T01:02:26.805Z,38.70
2018-08-23T01:07:31.957Z,40.27
2018-08-23T01:12:58.410Z,39.53
2018-08-23T01:18:14.430Z,54.53
2018-08-23T01:23:17.440Z,39.50
2018-08-23T01:28:20.449Z,41.77
2018-08-23T01:33:23.469Z,47.20
2018-08-23T01:38:26.643Z,45.70
2018-08-23T01:43:29.678Z,50.53
2018-08-23T01:48:32.951Z,47.53
2018-08-23T01:53:37.731Z,43.67
2018-08-23T01:58:40.917Z,55.93
2018-08-23T02:03:44.351Z,45.03
2018-08-23T02:08:47.386Z,42.47
2018-08-23T02:13:50.422Z,45.60
2018-08-23T02:18:53.422Z,48.27
2018-08-23T02:23:56.445Z,49.30
2018-08-23T02:28:59.509Z,46.73
2018-08-23T02:34:02.498Z,50.77
2018-08-23T02:39:09.394Z,53.50
2018-08-23T02:44:12.458Z,50.47
2018-08-23T02:49:16.039Z,52.13
2018-08-23T02:54:19.062Z,53.47
2018-08-23T02:59:22.232Z,65.10
2018-08-23T03:04:27.095Z,53.47
2018-08-23T03:09:35.426Z,55.67
2018-08-23T03:14:39.421Z,57.20
2018-08-23T03:20:03.136Z,52.43
2018-08-23T03:25:12.298Z,65.23
2018-08-23T03:30:16.555Z,60.33
2018-08-23T03:35:19.606Z,60.17
2018-08-23T03:40:22.637Z,60.90
2018-08-23T03:45:28.222Z,61.27
2018-08-23T03:50:35.835Z,60.00
2018-08-23T03:55:38.862Z,69.30
2018-08-23T04:01:00.898Z,63.43
2018-08-23T04:06:22.921Z,59.73
2018-08-23T04:11:25.966Z,65.50
2018-08-23T04:16:30.110Z,61.27
2018-08-23T04:21:33.217Z,59.20
2018-08-23T04:26:37.065Z,69.83
2018-08-23T04:31:41.667Z,62.30
2018-08-23T04:36:44.921Z,65.87
2018-08-23T04:41:49.222Z,72.10
2018-08-23T04:46:52.260Z,72.03
2018-08-23T04:51:55.473Z,75.87
2018-08-23T04:56:59.408Z,68.80
2018-08-23T05:02:02.617Z,61.50
2018-08-23T05:07:05.673Z,59.80
2018-08-23T05:12:08.681Z,67.57
2018-08-23T05:17:11.682Z,76.83
2018-08-23T05:22:14.766Z,64.43
2018-08-23T05:27:17.800Z,57.90
2018-08-23T05:32:20.859Z,57.73
2018-08-23T05:37:23.905Z,64.10
2018-08-23T05:42:49.733Z,62.30
2018-08-23T05:47:52.770Z,63.13
2018-08-23T05:52:55.785Z,69.80
2018-08-23T05:58:12.109Z,56.63
2018-08-23T06:03:15.698Z,74.77
2018-08-23T06:08:18.778Z,73.13
2018-08-23T06:13:21.829Z,72.27
2018-08-23T06:18:25.583Z,83.23
2018-08-23T06:23:57.026Z,79.37
2018-08-23T06:29:00.042Z,68.73
2018-08-23T06:34:03.189Z,66.63
2018-08-23T06:39:06.818Z,69.20
2018-08-23T06:44:09.929Z,79.80
2018-08-23T06:49:12.952Z,75.33
2018-08-23T06:54:15.970Z,85.00
2018-08-23T06:59:19.017Z,71.10
2018-08-23T07:04:22.083Z,69.67
2018-08-23T07:09:25.129Z,72.40
2018-08-23T07:14:28.158Z,72.23
2018-08-23T07:19:33.049Z,67.33
2018-08-23T07:24:49.745Z,60.03
2018-08-23T07:29:55.581Z,60.97
2018-08-23T07:35:15.232Z,60.03
2018-08-23T07:40:19.964Z,64.77
2018-08-23T07:45:23.419Z,59.07
2018-08-23T07:50:26.454Z,59.00
2018-08-23T07:55:29.590Z,55.93
2018-08-23T08:00:39.013Z,53.97
2018-08-23T08:05:43.321Z,52.07
2018-08-23T08:10:46.307Z,46.40
2018-08-23T08:15:49.314Z,44.43
2018-08-23T08:21:02.185Z,53.87
2018-08-23T08:26:05.047Z,48.47
2018-08-23T08:31:08.101Z,49.77
2018-08-23T08:36:11.302Z,43.23
2018-08-23T08:41:14.346Z,47.10
2018-08-23T08:46:17.357Z,50.90
2018-08-23T08:51:26.942Z,49.90
2018-08-23T08:56:35.479Z,44.50
2018-08-23T09:01:38.624Z,51.20
2018-08-23T09:06:43.896Z,43.30
2018-08-23T09:11:47.019Z,48.47
2018-08-23T09:16:50.087Z,56.27
2018-08-23T09:22:04.441Z,53.83
2018-08-23T09:27:16.463Z,57.00
2018-08-23T09:32:25.148Z,61.47
2018-08-23T09:37:29.927Z,55.37
2018-08-23T09:42:34.233Z,65.00
2018-08-23T09:47:37.321Z,57.57
2018-08-23T09:52:45.140Z,59.03
2018-08-23T09:57:48.174Z,68.20
2018-08-23T10:02:56.886Z,63.37
2018-08-23T10:08:08.462Z,66.60
2018-08-23T10:13:17.144Z,66.87
2018-08-23T10:18:26.989Z,71.20
2018-08-23T10:23:30.014Z,74.40
2018-08-23T10:28:38.680Z,72.30
2018-08-23T10:33:41.719Z,72.43
2018-08-23T10:38:46.135Z,62.63
2018-08-23T10:43:49.300Z,60.80
2018-08-23T10:48:52.318Z,53.67
2018-08-23T10:53:55.358Z,62.70
2018-08-23T10:59:00.520Z,50.00
2018-08-23T11:04:04.880Z,58.13
2018-08-23T11:09:13.523Z,55.90
2018-08-23T11:14:22.105Z,42.87
2018-08-23T11:19:30.758Z,48.43
2018-08-23T11:24:34.085Z,42.60
2018-08-23T11:29:37.277Z,44.50
2018-08-23T11:34:40.322Z,42.03
2018-08-23T11:39:43.371Z,49.80
2018-08-23T11:44:46.463Z,51.07
2018-08-23T11:49:49.486Z,43.67
2018-08-23T11:54:52.530Z,41.23
2018-08-23T11:59:55.611Z,36.77
2018-08-23T12:04:58.636Z,32.40
2018-08-23T12:10:01.840Z,40.10
2018-08-23T12:15:05.423Z,23.07
2018-08-23T12:20:09.743Z,19.03
2018-08-23T12:25:13.273Z,23.43
2018-08-23T12:30:16.343Z,20.20
2018-08-23T12:35:19.758Z,13.17
2018-08-23T12:40:28.693Z,11.83
2018-08-23T12:45:31.880Z,15.40
2018-08-23T12:50:35.034Z,10.07
2018-08-23T12:55:38.073Z,8.37
2018-08-23T13:00:42.012Z,11.00
2018-08-23T13:05:45.101Z,11.37
2018-08-23T13:10:48.122Z,10.03
2018-08-23T13:15:51.238Z,9.00
2018-08-23T13:20:54.386Z,10.40
2018-08-23T13:25:58.231Z,9.20
2018-08-23T13:31:01.229Z,10.90
2018-08-23T13:36:04.457Z,8.60
2018-08-23T13:41:07.552Z,8.43
2018-08-23T13:46:10.590Z,9.03
2018-08-23T13:51:13.672Z,9.20
2018-08-23T13:56:16.692Z,10.90
2018-08-23T14:01:24.168Z,9.27
2018-08-23T14:06:27.279Z,7.83
2018-08-23T14:11:30.307Z,7.20
2018-08-23T14:16:33.531Z,7.87
2018-08-23T14:21:36.593Z,11.87
2018-08-23T14:26:39.614Z,13.87
2018-08-23T14:31:43.183Z,9.33
2018-08-23T14:36:46.370Z,9.03
2018-08-23T14:41:49.438Z,10.53
2018-08-23T14:46:58.019Z,12.13
2018-08-23T14:52:01.130Z,15.50
2018-08-23T14:57:10.202Z,13.87
2018-08-23T15:02:13.532Z,22.33
2018-08-23T15:07:16.995Z,14.50
2018-08-23T15:12:20.182Z,21.60
2018-08-23T15:17:23.593Z,17.40
2018-08-23T15:30:33.549Z,15.33
2018-08-23T15:35:36.546Z,16.03
2018-08-23T15:40:39.597Z,13.40
2018-08-23T15:45:43.167Z,12.50
2018-08-23T15:50:46.293Z,13.53
2018-08-23T15:55:49.644Z,11.60
2018-08-23T16:00:52.613Z,14.00
2018-08-23T16:05:55.635Z,13.30
2018-08-23T16:10:58.663Z,9.30
2018-08-23T16:16:07.288Z,9.80
2018-08-23T16:21:10.307Z,17.53
2018-08-23T16:26:13.393Z,10.13
2018-08-23T16:31:16.617Z,9.03
2018-08-23T16:36:19.649Z,11.33
2018-08-23T16:41:22.853Z,8.80
2018-08-23T16:46:26.072Z,14.50
2018-08-23T16:51:29.114Z,11.50
2018-08-23T16:56:32.139Z,9.83
2018-08-23T17:01:35.187Z,11.57
2018-08-23T17:06:38.262Z,8.73
2018-08-23T17:11:41.490Z,7.20
2018-08-23T17:16:50.286Z,7.77
2018-08-23T17:21:53.319Z,12.57
2018-08-23T17:26:56.355Z,12.03
2018-08-23T17:31:59.526Z,12.97
2018-08-23T17:37:02.662Z,20.33
2018-08-23T17:42:06.004Z,8.17
2018-08-23T17:47:09.137Z,8.30
2018-08-23T17:52:12.387Z,14.80
2018-08-23T17:57:15.394Z,15.00
2018-08-23T18:02:19.363Z,9.10
2018-08-23T18:07:22.478Z,11.07
2018-08-23T18:12:25.558Z,13.93
2018-08-23T18:17:28.575Z,24.50
2018-08-23T18:22:31.658Z,19.60
2018-08-23T18:27:34.851Z,22.87
2018-08-23T18:32:37.996Z,24.77
2018-08-23T18:37:40.963Z,26.90
2018-08-23T18:42:44.326Z,23.20
2018-08-23T18:47:47.418Z,21.67
2018-08-23T18:52:50.733Z,24.83
2018-08-23T18:57:53.770Z,23.90
2018-08-23T19:02:57.073Z,31.87
2018-08-23T19:08:00.290Z,30.20
2018-08-23T19:13:03.837Z,26.80
2018-08-23T19:18:07.063Z,29.90
2018-08-23T19:23:10.181Z,27.50
2018-08-23T19:28:13.211Z,24.97
2018-08-23T19:33:16.626Z,27.33
2018-08-23T19:38:19.686Z,24.43
2018-08-23T19:43:22.724Z,24.10
2018-08-23T19:48:25.775Z,25.97
2018-08-23T19:53:28.944Z,29.90
2018-08-23T19:58:31.990Z,28.70
2018-08-23T20:03:35.125Z,25.77
2018-08-23T20:08:38.238Z,29.00
2018-08-23T20:13:41.369Z,23.23
2018-08-23T20:18:44.532Z,24.50
2018-08-23T20:23:47.539Z,23.17
2018-08-23T20:28:50.565Z,28.57
2018-08-23T20:33:53.636Z,36.03
2018-08-23T20:38:56.662Z,28.10
2018-08-23T20:43:59.860Z,22.13
2018-08-23T20:49:02.926Z,29.57
2018-08-23T20:54:07.291Z,24.90
2018-08-23T20:59:10.330Z,26.50
2018-08-23T21:04:13.470Z,28.87
2018-08-23T21:09:16.433Z,26.57
2018-08-23T21:14:21.222Z,23.97
2018-08-23T21:19:24.293Z,22.33
2018-08-23T21:24:27.314Z,22.90
2018-08-23T21:29:30.303Z,25.80
2018-08-23T21:34:34.959Z,26.37
2018-08-23T21:39:38.047Z,25.20
2018-08-23T21:44:41.050Z,25.70
2018-08-23T21:49:44.331Z,26.57
2018-08-23T21:54:47.418Z,27.47
2018-08-23T21:59:50.413Z,25.80
2018-08-23T22:04:54.548Z,25.83
2018-08-23T22:09:57.601Z,28.77
2018-08-23T22:15:00.581Z,21.83
2018-08-23T22:20:03.698Z,27.00
2018-08-23T22:25:06.758Z,23.07
2018-08-23T22:30:09.822Z,22.80
2018-08-23T22:35:12.776Z,25.10
2018-08-23T22:40:15.751Z,22.00
2018-08-23T22:45:18.802Z,21.07
2018-08-23T22:50:21.807Z,20.47
2018-08-23T22:55:24.834Z,24.33
2018-08-23T23:00:33.682Z,21.10
2018-08-23T23:05:36.715Z,21.17
2018-08-23T23:10:39.925Z,23.07
2018-08-23T23:15:42.928Z,20.40
2018-08-23T23:20:45.949Z,18.90
2018-08-23T23:25:48.982Z,20.57
2018-08-23T23:30:51.955Z,18.93
2018-08-23T23:35:54.928Z,17.40
2018-08-23T23:40:57.909Z,17.60
2018-08-23T23:46:00.922Z,19.33
2018-08-23T23:51:04.535Z,23.83
2018-08-23T23:56:07.537Z,18.70
